sensor_id;sensor_type;location;lat;lon;timestamp;temperature;humidity
22035;DHT22;11181;51.002;4.356;2023-04-15T00:00:35;13.90;99.90
22035;DHT22;11181;51.002;4.356;2023-04-15T00:03:03;13.80;99.90
22035;DHT22;11181;51.002;4.356;2023-04-15T00:05:31;13.80;99.90
22035;DHT22;11181;51.002;4.356;2023-04-15T00:07:58;13.80;99.90
22035;DHT22;11181;51.002;4.356;2023-04-15T00:10:26;13.80;99.90
22035;DHT22;11181;51.002;4.356;2023-04-15T00:12:53;13.90;99.90
22035;DHT22;11181;51.002;4.356;2023-04-15T00:15:20;13.90;99.90
22035;DHT22;11181;51.002;4.356;2023-04-15T00:17:49;13.90;99.90
22035;DHT22;11181;51.002;4.356;2023-04-15T00:20:17;13.90;99.90
22035;DHT22;11181;51.002;4.356;2023-04-15T00:22:45;13.90;99.90
22035;DHT22;11181;51.002;4.356;2023-04-15T00:25:12;13.90;99.90
22035;DHT22;11181;51.002;4.356;2023-04-15T00:27:39;13.90;99.90
22035;DHT22;11181;51.002;4.356;2023-04-15T00:30:07;13.90;99.90
22035;DHT22;11181;51.002;4.356;2023-04-15T00:32:34;13.90;99.90
22035;DHT22;11181;51.002;4.356;2023-04-15T00:35:01;13.80;99.90
22035;DHT22;11181;51.002;4.356;2023-04-15T00:37:28;13.90;99.90
22035;DHT22;11181;51.002;4.356;2023-04-15T00:39:56;13.90;99.90
22035;DHT22;11181;51.002;4.356;2023-04-15T00:42:24;13.80;99.90
22035;DHT22;11181;51.002;4.356;2023-04-15T00:44:51;13.90;99.90
22035;DHT22;11181;51.002;4.356;2023-04-15T00:47:18;13.90;99.90
22035;DHT22;11181;51.002;4.356;2023-04-15T00:49:45;13.80;99.90
22035;DHT22;11181;51.002;4.356;2023-04-15T00:52:12;13.80;99.90
22035;DHT22;11181;51.002;4.356;2023-04-15T00:54:39;13.80;99.90
22035;DHT22;11181;51.002;4.356;2023-04-15T00:57:07;13.70;99.90
22035;DHT22;11181;51.002;4.356;2023-04-15T00:59:34;13.70;99.90
22035;DHT22;11181;51.002;4.356;2023-04-15T01:02:01;13.70;99.90
22035;DHT22;11181;51.002;4.356;2023-04-15T01:04:29;13.70;99.90
22035;DHT22;11181;51.002;4.356;2023-04-15T01:06:56;13.70;99.90
22035;DHT22;11181;51.002;4.356;2023-04-15T01:09:24;13.60;99.90
22035;DHT22;11181;51.002;4.356;2023-04-15T01:11:50;13.70;99.90
22035;DHT22;11181;51.002;4.356;2023-04-15T01:14:20;13.70;99.90
22035;DHT22;11181;51.002;4.356;2023-04-15T01:16:47;13.60;99.90
22035;DHT22;11181;51.002;4.356;2023-04-15T01:19:18;13.60;99.90
22035;DHT22;11181;51.002;4.356;2023-04-15T01:21:46;13.60;99.90
22035;DHT22;11181;51.002;4.356;2023-04-15T01:24:14;13.60;99.90
22035;DHT22;11181;51.002;4.356;2023-04-15T01:26:44;13.60;99.90
22035;DHT22;11181;51.002;4.356;2023-04-15T01:29:13;13.60;99.90
22035;DHT22;11181;51.002;4.356;2023-04-15T01:31:40;13.60;99.90
22035;DHT22;11181;51.002;4.356;2023-04-15T01:34:08;13.60;99.90
22035;DHT22;11181;51.002;4.356;2023-04-15T01:36:35;13.60;99.90
22035;DHT22;11181;51.002;4.356;2023-04-15T01:39:02;13.40;99.90
22035;DHT22;11181;51.002;4.356;2023-04-15T01:41:30;13.30;99.90
22035;DHT22;11181;51.002;4.356;2023-04-15T01:43:58;13.20;99.90
22035;DHT22;11181;51.002;4.356;2023-04-15T01:46:25;13.30;99.90
22035;DHT22;11181;51.002;4.356;2023-04-15T01:48:52;13.30;99.90
22035;DHT22;11181;51.002;4.356;2023-04-15T01:51:19;13.30;99.90
22035;DHT22;11181;51.002;4.356;2023-04-15T01:53:46;13.40;99.90
22035;DHT22;11181;51.002;4.356;2023-04-15T01:56:13;13.40;99.90
22035;DHT22;11181;51.002;4.356;2023-04-15T01:58:40;13.40;99.90
22035;DHT22;11181;51.002;4.356;2023-04-15T02:01:08;13.40;99.90
22035;DHT22;11181;51.002;4.356;2023-04-15T02:03:36;13.40;99.90
22035;DHT22;11181;51.002;4.356;2023-04-15T02:06:04;13.30;99.90
22035;DHT22;11181;51.002;4.356;2023-04-15T02:08:31;13.30;99.90
22035;DHT22;11181;51.002;4.356;2023-04-15T02:10:58;13.30;99.90
22035;DHT22;11181;51.002;4.356;2023-04-15T02:13:25;13.30;99.90
22035;DHT22;11181;51.002;4.356;2023-04-15T02:15:53;13.30;99.90
22035;DHT22;11181;51.002;4.356;2023-04-15T02:18:22;13.40;99.90
22035;DHT22;11181;51.002;4.356;2023-04-15T02:20:50;13.40;99.90
22035;DHT22;11181;51.002;4.356;2023-04-15T02:23:18;13.40;99.90
22035;DHT22;11181;51.002;4.356;2023-04-15T02:25:44;13.40;99.90
22035;DHT22;11181;51.002;4.356;2023-04-15T02:28:12;13.40;99.90
22035;DHT22;11181;51.002;4.356;2023-04-15T02:30:38;13.30;99.90
22035;DHT22;11181;51.002;4.356;2023-04-15T02:33:06;13.00;99.90
22035;DHT22;11181;51.002;4.356;2023-04-15T02:35:34;12.80;99.90
22035;DHT22;11181;51.002;4.356;2023-04-15T02:38:03;12.70;99.90
22035;DHT22;11181;51.002;4.356;2023-04-15T02:40:30;12.70;99.90
22035;DHT22;11181;51.002;4.356;2023-04-15T02:42:57;12.90;99.90
22035;DHT22;11181;51.002;4.356;2023-04-15T02:45:25;12.70;99.90
22035;DHT22;11181;51.002;4.356;2023-04-15T02:47:52;12.50;99.90
22035;DHT22;11181;51.002;4.356;2023-04-15T02:50:19;12.40;99.90
22035;DHT22;11181;51.002;4.356;2023-04-15T02:52:49;12.40;99.90
22035;DHT22;11181;51.002;4.356;2023-04-15T02:55:16;12.50;99.90
22035;DHT22;11181;51.002;4.356;2023-04-15T02:57:43;12.60;99.90
22035;DHT22;11181;51.002;4.356;2023-04-15T03:00:11;12.70;99.90
22035;DHT22;11181;51.002;4.356;2023-04-15T03:02:39;12.70;99.90
22035;DHT22;11181;51.002;4.356;2023-04-15T03:05:11;12.80;99.90
22035;DHT22;11181;51.002;4.356;2023-04-15T03:07:38;12.80;99.90
22035;DHT22;11181;51.002;4.356;2023-04-15T03:10:08;12.80;99.90
22035;DHT22;11181;51.002;4.356;2023-04-15T03:12:35;12.90;99.90
22035;DHT22;11181;51.002;4.356;2023-04-15T03:15:02;12.90;99.90
22035;DHT22;11181;51.002;4.356;2023-04-15T03:17:29;12.90;99.90
22035;DHT22;11181;51.002;4.356;2023-04-15T03:19:56;12.80;99.90
22035;DHT22;11181;51.002;4.356;2023-04-15T03:22:23;12.80;99.90
22035;DHT22;11181;51.002;4.356;2023-04-15T03:24:51;12.80;99.90
22035;DHT22;11181;51.002;4.356;2023-04-15T03:27:19;12.80;99.90
22035;DHT22;11181;51.002;4.356;2023-04-15T03:29:46;12.70;99.90
22035;DHT22;11181;51.002;4.356;2023-04-15T03:32:13;12.70;99.90
22035;DHT22;11181;51.002;4.356;2023-04-15T03:34:40;12.70;99.90
22035;DHT22;11181;51.002;4.356;2023-04-15T03:37:07;12.70;99.90
22035;DHT22;11181;51.002;4.356;2023-04-15T03:39:34;12.70;99.90
22035;DHT22;11181;51.002;4.356;2023-04-15T03:42:01;12.70;99.90
22035;DHT22;11181;51.002;4.356;2023-04-15T03:44:29;12.70;99.90
22035;DHT22;11181;51.002;4.356;2023-04-15T03:46:57;12.60;99.90
22035;DHT22;11181;51.002;4.356;2023-04-15T03:49:24;12.70;99.90
22035;DHT22;11181;51.002;4.356;2023-04-15T03:51:51;12.70;99.90
22035;DHT22;11181;51.002;4.356;2023-04-15T03:54:18;12.70;99.90
22035;DHT22;11181;51.002;4.356;2023-04-15T03:56:45;12.60;99.90
22035;DHT22;11181;51.002;4.356;2023-04-15T03:59:12;12.60;99.90
22035;DHT22;11181;51.002;4.356;2023-04-15T04:01:40;12.20;99.90
22035;DHT22;11181;51.002;4.356;2023-04-15T04:04:07;12.10;99.90
22035;DHT22;11181;51.002;4.356;2023-04-15T04:06:34;12.20;99.90
22035;DHT22;11181;51.002;4.356;2023-04-15T04:09:01;12.30;99.90
22035;DHT22;11181;51.002;4.356;2023-04-15T04:11:28;12.40;99.90
22035;DHT22;11181;51.002;4.356;2023-04-15T04:13:55;12.50;99.90
22035;DHT22;11181;51.002;4.356;2023-04-15T04:16:22;12.60;99.90
22035;DHT22;11181;51.002;4.356;2023-04-15T04:18:50;12.70;99.90
22035;DHT22;11181;51.002;4.356;2023-04-15T04:21:17;12.60;99.90
22035;DHT22;11181;51.002;4.356;2023-04-15T04:23:44;12.70;99.90
22035;DHT22;11181;51.002;4.356;2023-04-15T04:26:11;12.70;99.90
22035;DHT22;11181;51.002;4.356;2023-04-15T04:28:38;12.80;99.90
22035;DHT22;11181;51.002;4.356;2023-04-15T04:31:05;12.80;99.90
22035;DHT22;11181;51.002;4.356;2023-04-15T04:33:33;12.70;99.90
22035;DHT22;11181;51.002;4.356;2023-04-15T04:36:01;12.70;99.90
22035;DHT22;11181;51.002;4.356;2023-04-15T04:38:28;12.70;99.90
22035;DHT22;11181;51.002;4.356;2023-04-15T04:40:55;12.70;99.90
22035;DHT22;11181;51.002;4.356;2023-04-15T04:43:22;12.50;99.90
22035;DHT22;11181;51.002;4.356;2023-04-15T04:45:49;12.40;99.90
22035;DHT22;11181;51.002;4.356;2023-04-15T04:48:16;12.30;99.90
22035;DHT22;11181;51.002;4.356;2023-04-15T04:50:43;12.20;99.90
22035;DHT22;11181;51.002;4.356;2023-04-15T04:53:13;12.20;99.90
22035;DHT22;11181;51.002;4.356;2023-04-15T04:55:40;12.30;99.90
22035;DHT22;11181;51.002;4.356;2023-04-15T04:58:07;12.40;99.90
22035;DHT22;11181;51.002;4.356;2023-04-15T05:00:34;12.40;99.90
22035;DHT22;11181;51.002;4.356;2023-04-15T05:03:02;12.40;99.90
22035;DHT22;11181;51.002;4.356;2023-04-15T05:05:29;12.40;99.90
22035;DHT22;11181;51.002;4.356;2023-04-15T05:07:56;12.40;99.90
22035;DHT22;11181;51.002;4.356;2023-04-15T05:10:24;12.40;99.90
22035;DHT22;11181;51.002;4.356;2023-04-15T05:12:51;12.50;99.90
22035;DHT22;11181;51.002;4.356;2023-04-15T05:15:18;12.50;99.90
22035;DHT22;11181;51.002;4.356;2023-04-15T05:17:46;12.50;99.90
22035;DHT22;11181;51.002;4.356;2023-04-15T05:20:12;12.60;99.90
22035;DHT22;11181;51.002;4.356;2023-04-15T05:22:40;12.60;99.90
22035;DHT22;11181;51.002;4.356;2023-04-15T05:25:07;12.60;99.90
22035;DHT22;11181;51.002;4.356;2023-04-15T05:27:36;12.60;99.90
22035;DHT22;11181;51.002;4.356;2023-04-15T05:30:03;12.60;99.90
22035;DHT22;11181;51.002;4.356;2023-04-15T05:32:30;12.50;99.90
22035;DHT22;11181;51.002;4.356;2023-04-15T05:34:57;12.00;99.90
22035;DHT22;11181;51.002;4.356;2023-04-15T05:37:24;11.90;99.90
22035;DHT22;11181;51.002;4.356;2023-04-15T05:39:51;11.90;99.90
22035;DHT22;11181;51.002;4.356;2023-04-15T05:42:18;12.00;99.90
22035;DHT22;11181;51.002;4.356;2023-04-15T05:44:46;11.80;99.90
22035;DHT22;11181;51.002;4.356;2023-04-15T05:47:13;11.00;99.90
22035;DHT22;11181;51.002;4.356;2023-04-15T05:49:40;10.60;99.90
22035;DHT22;11181;51.002;4.356;2023-04-15T05:52:07;10.70;99.90
22035;DHT22;11181;51.002;4.356;2023-04-15T05:54:34;10.80;99.90
22035;DHT22;11181;51.002;4.356;2023-04-15T05:57:01;11.10;99.90
22035;DHT22;11181;51.002;4.356;2023-04-15T05:59:28;11.30;99.90
22035;DHT22;11181;51.002;4.356;2023-04-15T06:01:56;11.50;99.90
22035;DHT22;11181;51.002;4.356;2023-04-15T06:04:23;11.60;99.90
22035;DHT22;11181;51.002;4.356;2023-04-15T06:06:50;11.40;99.90
22035;DHT22;11181;51.002;4.356;2023-04-15T06:09:17;11.50;99.90
22035;DHT22;11181;51.002;4.356;2023-04-15T06:11:44;11.60;99.90
22035;DHT22;11181;51.002;4.356;2023-04-15T06:14:11;11.90;99.90
22035;DHT22;11181;51.002;4.356;2023-04-15T06:16:38;12.00;99.90
22035;DHT22;11181;51.002;4.356;2023-04-15T06:19:06;12.10;99.90
22035;DHT22;11181;51.002;4.356;2023-04-15T06:21:33;12.10;99.90
22035;DHT22;11181;51.002;4.356;2023-04-15T06:24:00;11.90;99.90
22035;DHT22;11181;51.002;4.356;2023-04-15T06:26:28;11.80;99.90
22035;DHT22;11181;51.002;4.356;2023-04-15T06:28:55;12.10;99.90
22035;DHT22;11181;51.002;4.356;2023-04-15T06:31:22;12.10;99.90
22035;DHT22;11181;51.002;4.356;2023-04-15T06:33:49;12.30;99.90
22035;DHT22;11181;51.002;4.356;2023-04-15T06:36:17;12.50;99.90
22035;DHT22;11181;51.002;4.356;2023-04-15T06:38:44;12.60;99.90
22035;DHT22;11181;51.002;4.356;2023-04-15T06:41:11;12.70;99.90
22035;DHT22;11181;51.002;4.356;2023-04-15T06:43:38;12.70;99.90
22035;DHT22;11181;51.002;4.356;2023-04-15T06:46:05;12.70;99.90
22035;DHT22;11181;51.002;4.356;2023-04-15T06:48:32;12.90;99.90
22035;DHT22;11181;51.002;4.356;2023-04-15T06:50:59;12.80;99.90
22035;DHT22;11181;51.002;4.356;2023-04-15T06:53:27;12.70;99.90
22035;DHT22;11181;51.002;4.356;2023-04-15T06:55:54;12.80;99.90
22035;DHT22;11181;51.002;4.356;2023-04-15T06:58:21;12.90;99.90
22035;DHT22;11181;51.002;4.356;2023-04-15T07:00:48;13.00;99.90
22035;DHT22;11181;51.002;4.356;2023-04-15T07:03:15;12.90;99.90
22035;DHT22;11181;51.002;4.356;2023-04-15T07:05:42;12.70;99.90
22035;DHT22;11181;51.002;4.356;2023-04-15T07:08:10;12.60;99.90
22035;DHT22;11181;51.002;4.356;2023-04-15T07:10:38;12.60;99.90
22035;DHT22;11181;51.002;4.356;2023-04-15T07:13:06;12.80;99.90
22035;DHT22;11181;51.002;4.356;2023-04-15T07:15:33;12.90;99.90
22035;DHT22;11181;51.002;4.356;2023-04-15T07:18:00;13.20;99.90
22035;DHT22;11181;51.002;4.356;2023-04-15T07:20:27;13.50;99.90
22035;DHT22;11181;51.002;4.356;2023-04-15T07:22:54;13.60;99.90
22035;DHT22;11181;51.002;4.356;2023-04-15T07:25:21;13.60;99.90
22035;DHT22;11181;51.002;4.356;2023-04-15T07:27:49;13.80;99.90
22035;DHT22;11181;51.002;4.356;2023-04-15T07:30:17;13.90;99.90
22035;DHT22;11181;51.002;4.356;2023-04-15T07:32:44;14.10;99.90
22035;DHT22;11181;51.002;4.356;2023-04-15T07:35:11;14.30;99.90
22035;DHT22;11181;51.002;4.356;2023-04-15T07:37:39;14.30;99.90
22035;DHT22;11181;51.002;4.356;2023-04-15T07:40:09;14.40;99.90
22035;DHT22;11181;51.002;4.356;2023-04-15T07:42:37;14.40;99.90
22035;DHT22;11181;51.002;4.356;2023-04-15T07:45:07;14.30;99.90
22035;DHT22;11181;51.002;4.356;2023-04-15T07:47:34;14.50;99.90
22035;DHT22;11181;51.002;4.356;2023-04-15T07:50:02;14.50;99.90
22035;DHT22;11181;51.002;4.356;2023-04-15T07:52:29;14.40;99.90
22035;DHT22;11181;51.002;4.356;2023-04-15T07:54:56;14.50;99.90
22035;DHT22;11181;51.002;4.356;2023-04-15T07:57:23;14.70;99.90
22035;DHT22;11181;51.002;4.356;2023-04-15T07:59:51;15.10;99.90
22035;DHT22;11181;51.002;4.356;2023-04-15T08:02:19;15.50;99.90
22035;DHT22;11181;51.002;4.356;2023-04-15T08:04:46;15.80;99.90
22035;DHT22;11181;51.002;4.356;2023-04-15T08:07:13;16.10;99.90
22035;DHT22;11181;51.002;4.356;2023-04-15T08:09:40;16.30;99.90
22035;DHT22;11181;51.002;4.356;2023-04-15T08:12:07;16.50;99.90
22035;DHT22;11181;51.002;4.356;2023-04-15T08:14:37;16.60;99.90
22035;DHT22;11181;51.002;4.356;2023-04-15T08:17:04;16.90;99.90
22035;DHT22;11181;51.002;4.356;2023-04-15T08:19:33;16.80;99.90
22035;DHT22;11181;51.002;4.356;2023-04-15T08:22:00;16.90;99.90
22035;DHT22;11181;51.002;4.356;2023-04-15T08:24:27;17.10;99.90
22035;DHT22;11181;51.002;4.356;2023-04-15T08:26:54;17.20;99.90
22035;DHT22;11181;51.002;4.356;2023-04-15T08:29:22;17.20;99.90
22035;DHT22;11181;51.002;4.356;2023-04-15T08:31:49;17.20;99.90
22035;DHT22;11181;51.002;4.356;2023-04-15T08:34:16;17.30;99.90
22035;DHT22;11181;51.002;4.356;2023-04-15T08:36:45;17.10;99.90
22035;DHT22;11181;51.002;4.356;2023-04-15T08:39:12;16.70;99.90
22035;DHT22;11181;51.002;4.356;2023-04-15T08:41:40;16.60;99.90
22035;DHT22;11181;51.002;4.356;2023-04-15T08:44:09;16.60;99.90
22035;DHT22;11181;51.002;4.356;2023-04-15T08:46:36;16.90;99.90
22035;DHT22;11181;51.002;4.356;2023-04-15T08:49:04;17.00;99.90
22035;DHT22;11181;51.002;4.356;2023-04-15T08:51:31;17.10;99.90
22035;DHT22;11181;51.002;4.356;2023-04-15T08:54:01;17.30;99.90
22035;DHT22;11181;51.002;4.356;2023-04-15T08:56:30;17.30;99.90
22035;DHT22;11181;51.002;4.356;2023-04-15T08:58:58;17.30;99.90
22035;DHT22;11181;51.002;4.356;2023-04-15T09:01:26;17.30;99.90
22035;DHT22;11181;51.002;4.356;2023-04-15T09:03:53;17.40;99.90
22035;DHT22;11181;51.002;4.356;2023-04-15T09:06:20;17.30;99.90
22035;DHT22;11181;51.002;4.356;2023-04-15T09:08:48;17.70;99.90
22035;DHT22;11181;51.002;4.356;2023-04-15T09:11:17;18.00;99.90
22035;DHT22;11181;51.002;4.356;2023-04-15T09:13:44;18.10;99.90
22035;DHT22;11181;51.002;4.356;2023-04-15T09:16:11;17.80;99.90
22035;DHT22;11181;51.002;4.356;2023-04-15T09:18:38;17.60;99.90
22035;DHT22;11181;51.002;4.356;2023-04-15T09:21:07;18.00;99.90
22035;DHT22;11181;51.002;4.356;2023-04-15T09:23:36;17.70;99.90
22035;DHT22;11181;51.002;4.356;2023-04-15T09:26:04;17.70;99.90
22035;DHT22;11181;51.002;4.356;2023-04-15T09:28:33;18.10;99.90
22035;DHT22;11181;51.002;4.356;2023-04-15T09:31:06;17.90;99.90
22035;DHT22;11181;51.002;4.356;2023-04-15T09:33:34;17.60;99.90
22035;DHT22;11181;51.002;4.356;2023-04-15T09:36:03;17.20;99.90
22035;DHT22;11181;51.002;4.356;2023-04-15T09:38:31;17.50;99.90
22035;DHT22;11181;51.002;4.356;2023-04-15T09:40:58;18.10;99.90
22035;DHT22;11181;51.002;4.356;2023-04-15T09:43:38;18.80;99.90
22035;DHT22;11181;51.002;4.356;2023-04-15T09:46:05;19.10;99.90
22035;DHT22;11181;51.002;4.356;2023-04-15T09:48:32;19.30;99.90
22035;DHT22;11181;51.002;4.356;2023-04-15T09:51:00;19.20;99.90
22035;DHT22;11181;51.002;4.356;2023-04-15T09:53:27;19.20;99.90
22035;DHT22;11181;51.002;4.356;2023-04-15T09:55:56;19.20;99.90
22035;DHT22;11181;51.002;4.356;2023-04-15T09:58:24;19.40;99.90
22035;DHT22;11181;51.002;4.356;2023-04-15T10:00:54;19.80;99.90
22035;DHT22;11181;51.002;4.356;2023-04-15T10:03:23;20.00;99.90
22035;DHT22;11181;51.002;4.356;2023-04-15T10:05:51;20.00;99.90
22035;DHT22;11181;51.002;4.356;2023-04-15T10:08:20;20.00;99.90
22035;DHT22;11181;51.002;4.356;2023-04-15T10:10:49;20.40;99.90
22035;DHT22;11181;51.002;4.356;2023-04-15T10:13:17;20.50;99.90
22035;DHT22;11181;51.002;4.356;2023-04-15T10:15:49;19.70;99.90
22035;DHT22;11181;51.002;4.356;2023-04-15T10:18:19;19.30;99.90
22035;DHT22;11181;51.002;4.356;2023-04-15T10:20:47;18.80;99.90
22035;DHT22;11181;51.002;4.356;2023-04-15T10:23:14;19.10;99.90
22035;DHT22;11181;51.002;4.356;2023-04-15T10:25:42;19.30;99.90
22035;DHT22;11181;51.002;4.356;2023-04-15T10:28:10;19.70;99.90
22035;DHT22;11181;51.002;4.356;2023-04-15T10:30:37;20.00;99.90
22035;DHT22;11181;51.002;4.356;2023-04-15T10:33:05;20.50;99.90
22035;DHT22;11181;51.002;4.356;2023-04-15T10:35:35;20.70;99.90
22035;DHT22;11181;51.002;4.356;2023-04-15T10:38:31;20.50;99.90
22035;DHT22;11181;51.002;4.356;2023-04-15T10:41:12;20.50;99.90
22035;DHT22;11181;51.002;4.356;2023-04-15T10:43:39;20.70;99.90
22035;DHT22;11181;51.002;4.356;2023-04-15T10:46:11;20.70;99.90
22035;DHT22;11181;51.002;4.356;2023-04-15T10:48:38;20.40;99.90
22035;DHT22;11181;51.002;4.356;2023-04-15T10:51:06;20.00;99.90
22035;DHT22;11181;51.002;4.356;2023-04-15T10:53:33;20.40;99.90
22035;DHT22;11181;51.002;4.356;2023-04-15T10:56:03;20.90;99.90
22035;DHT22;11181;51.002;4.356;2023-04-15T10:58:40;21.00;96.20
22035;DHT22;11181;51.002;4.356;2023-04-15T11:01:08;21.20;94.90
22035;DHT22;11181;51.002;4.356;2023-04-15T11:03:36;21.30;95.20
22035;DHT22;11181;51.002;4.356;2023-04-15T11:06:06;21.30;94.60
22035;DHT22;11181;51.002;4.356;2023-04-15T11:08:52;21.20;96.00
22035;DHT22;11181;51.002;4.356;2023-04-15T11:11:19;20.90;95.10
22035;DHT22;11181;51.002;4.356;2023-04-15T11:13:47;20.80;95.80
22035;DHT22;11181;51.002;4.356;2023-04-15T11:16:15;20.70;95.10
22035;DHT22;11181;51.002;4.356;2023-04-15T11:18:42;21.00;95.80
22035;DHT22;11181;51.002;4.356;2023-04-15T11:21:24;21.20;91.00
22035;DHT22;11181;51.002;4.356;2023-04-15T11:23:52;21.50;90.80
22035;DHT22;11181;51.002;4.356;2023-04-15T11:26:25;21.50;91.50
22035;DHT22;11181;51.002;4.356;2023-04-15T11:28:52;21.90;92.90
22035;DHT22;11181;51.002;4.356;2023-04-15T11:31:19;22.20;93.20
22035;DHT22;11181;51.002;4.356;2023-04-15T11:33:54;21.90;91.10
22035;DHT22;11181;51.002;4.356;2023-04-15T11:36:25;22.00;93.20
22035;DHT22;11181;51.002;4.356;2023-04-15T11:38:53;22.50;95.00
22035;DHT22;11181;51.002;4.356;2023-04-15T11:41:20;22.80;93.60
22035;DHT22;11181;51.002;4.356;2023-04-15T11:43:48;22.80;93.20
22035;DHT22;11181;51.002;4.356;2023-04-15T11:46:15;22.40;93.20
22035;DHT22;11181;51.002;4.356;2023-04-15T11:48:43;22.10;93.80
22035;DHT22;11181;51.002;4.356;2023-04-15T11:51:11;21.90;92.40
22035;DHT22;11181;51.002;4.356;2023-04-15T11:53:42;21.90;90.90
22035;DHT22;11181;51.002;4.356;2023-04-15T11:56:10;21.70;91.00
22035;DHT22;11181;51.002;4.356;2023-04-15T11:58:42;21.90;87.40
22035;DHT22;11181;51.002;4.356;2023-04-15T12:01:10;22.20;87.40
22035;DHT22;11181;51.002;4.356;2023-04-15T12:03:39;22.60;89.00
22035;DHT22;11181;51.002;4.356;2023-04-15T12:06:15;23.00;90.10
22035;DHT22;11181;51.002;4.356;2023-04-15T12:08:54;23.20;85.70
22035;DHT22;11181;51.002;4.356;2023-04-15T12:11:28;23.30;89.20
22035;DHT22;11181;51.002;4.356;2023-04-15T12:13:57;22.80;90.00
22035;DHT22;11181;51.002;4.356;2023-04-15T12:16:26;22.20;87.10
22035;DHT22;11181;51.002;4.356;2023-04-15T12:18:54;21.90;87.60
22035;DHT22;11181;51.002;4.356;2023-04-15T12:21:22;22.00;84.80
22035;DHT22;11181;51.002;4.356;2023-04-15T12:23:52;21.80;86.30
22035;DHT22;11181;51.002;4.356;2023-04-15T12:26:25;22.00;86.40
22035;DHT22;11181;51.002;4.356;2023-04-15T12:28:53;22.20;86.50
22035;DHT22;11181;51.002;4.356;2023-04-15T12:31:21;22.20;85.60
22035;DHT22;11181;51.002;4.356;2023-04-15T12:33:48;22.20;85.60
22035;DHT22;11181;51.002;4.356;2023-04-15T12:36:15;22.40;83.80
22035;DHT22;11181;51.002;4.356;2023-04-15T12:38:42;22.70;86.40
22035;DHT22;11181;51.002;4.356;2023-04-15T12:41:10;22.50;88.20
22035;DHT22;11181;51.002;4.356;2023-04-15T12:43:37;22.50;86.60
22035;DHT22;11181;51.002;4.356;2023-04-15T12:46:04;22.80;89.00
22035;DHT22;11181;51.002;4.356;2023-04-15T12:48:33;22.80;89.10
22035;DHT22;11181;51.002;4.356;2023-04-15T12:51:00;23.00;89.70
22035;DHT22;11181;51.002;4.356;2023-04-15T12:53:27;23.30;89.00
22035;DHT22;11181;51.002;4.356;2023-04-15T12:55:54;23.60;91.00
22035;DHT22;11181;51.002;4.356;2023-04-15T12:58:22;23.90;90.90
22035;DHT22;11181;51.002;4.356;2023-04-15T13:00:49;23.80;87.80
22035;DHT22;11181;51.002;4.356;2023-04-15T13:03:16;22.40;88.50
22035;DHT22;11181;51.002;4.356;2023-04-15T13:05:43;22.40;89.40
22035;DHT22;11181;51.002;4.356;2023-04-15T13:08:10;22.40;90.40
22035;DHT22;11181;51.002;4.356;2023-04-15T13:10:37;21.70;84.30
22035;DHT22;11181;51.002;4.356;2023-04-15T13:13:04;21.10;84.70
22035;DHT22;11181;51.002;4.356;2023-04-15T13:15:32;20.80;85.20
22035;DHT22;11181;51.002;4.356;2023-04-15T13:18:00;20.80;87.50
22035;DHT22;11181;51.002;4.356;2023-04-15T13:20:27;21.00;88.00
22035;DHT22;11181;51.002;4.356;2023-04-15T13:22:54;21.00;87.50
22035;DHT22;11181;51.002;4.356;2023-04-15T13:25:21;20.90;87.50
22035;DHT22;11181;51.002;4.356;2023-04-15T13:27:49;20.90;90.00
22035;DHT22;11181;51.002;4.356;2023-04-15T13:30:16;21.00;89.20
22035;DHT22;11181;51.002;4.356;2023-04-15T13:32:44;21.00;87.30
22035;DHT22;11181;51.002;4.356;2023-04-15T13:35:11;21.60;89.80
22035;DHT22;11181;51.002;4.356;2023-04-15T13:37:38;21.40;88.60
22035;DHT22;11181;51.002;4.356;2023-04-15T13:40:06;21.20;90.10
22035;DHT22;11181;51.002;4.356;2023-04-15T13:42:33;21.50;91.70
22035;DHT22;11181;51.002;4.356;2023-04-15T13:45:00;21.60;91.50
22035;DHT22;11181;51.002;4.356;2023-04-15T13:47:26;21.20;90.40
22035;DHT22;11181;51.002;4.356;2023-04-15T13:49:55;21.00;90.70
22035;DHT22;11181;51.002;4.356;2023-04-15T13:52:22;21.00;91.10
22035;DHT22;11181;51.002;4.356;2023-04-15T13:54:49;20.80;90.50
22035;DHT22;11181;51.002;4.356;2023-04-15T13:57:16;20.90;91.40
22035;DHT22;11181;51.002;4.356;2023-04-15T13:59:43;20.80;90.30
22035;DHT22;11181;51.002;4.356;2023-04-15T14:02:10;20.30;90.70
22035;DHT22;11181;51.002;4.356;2023-04-15T14:04:37;20.60;90.80
22035;DHT22;11181;51.002;4.356;2023-04-15T14:07:05;20.60;90.70
22035;DHT22;11181;51.002;4.356;2023-04-15T14:09:33;20.20;88.70
22035;DHT22;11181;51.002;4.356;2023-04-15T14:12:00;19.90;91.10
22035;DHT22;11181;51.002;4.356;2023-04-15T14:14:27;20.30;91.00
22035;DHT22;11181;51.002;4.356;2023-04-15T14:16:54;20.30;91.00
22035;DHT22;11181;51.002;4.356;2023-04-15T14:19:22;20.30;90.10
22035;DHT22;11181;51.002;4.356;2023-04-15T14:21:49;20.10;90.80
22035;DHT22;11181;51.002;4.356;2023-04-15T14:24:17;19.70;90.40
22035;DHT22;11181;51.002;4.356;2023-04-15T14:26:44;19.60;91.10
22035;DHT22;11181;51.002;4.356;2023-04-15T14:29:11;19.70;91.70
22035;DHT22;11181;51.002;4.356;2023-04-15T14:31:39;19.90;91.90
22035;DHT22;11181;51.002;4.356;2023-04-15T14:34:06;20.10;92.40
22035;DHT22;11181;51.002;4.356;2023-04-15T14:36:32;20.20;92.20
22035;DHT22;11181;51.002;4.356;2023-04-15T14:38:59;20.30;92.70
22035;DHT22;11181;51.002;4.356;2023-04-15T14:41:28;20.40;93.20
22035;DHT22;11181;51.002;4.356;2023-04-15T14:43:55;20.40;93.60
22035;DHT22;11181;51.002;4.356;2023-04-15T14:46:22;20.30;92.90
22035;DHT22;11181;51.002;4.356;2023-04-15T14:48:49;19.80;91.90
22035;DHT22;11181;51.002;4.356;2023-04-15T14:51:16;20.10;92.30
22035;DHT22;11181;51.002;4.356;2023-04-15T14:53:48;20.30;92.20
22035;DHT22;11181;51.002;4.356;2023-04-15T14:56:15;20.20;92.30
22035;DHT22;11181;51.002;4.356;2023-04-15T14:58:43;19.60;93.00
22035;DHT22;11181;51.002;4.356;2023-04-15T15:01:10;19.60;93.90
22035;DHT22;11181;51.002;4.356;2023-04-15T15:03:38;19.50;96.90
22035;DHT22;11181;51.002;4.356;2023-04-15T15:06:05;19.30;98.50
22035;DHT22;11181;51.002;4.356;2023-04-15T15:08:32;18.90;96.50
22035;DHT22;11181;51.002;4.356;2023-04-15T15:10:59;19.20;95.10
22035;DHT22;11181;51.002;4.356;2023-04-15T15:13:25;19.50;97.50
22035;DHT22;11181;51.002;4.356;2023-04-15T15:15:54;19.50;99.70
22035;DHT22;11181;51.002;4.356;2023-04-15T15:18:21;19.50;99.90
22035;DHT22;11181;51.002;4.356;2023-04-15T15:20:50;19.40;99.90
22035;DHT22;11181;51.002;4.356;2023-04-15T15:23:17;19.30;99.90
22035;DHT22;11181;51.002;4.356;2023-04-15T15:25:45;19.00;99.90
22035;DHT22;11181;51.002;4.356;2023-04-15T15:28:12;18.50;99.90
22035;DHT22;11181;51.002;4.356;2023-04-15T15:30:39;18.80;99.90
22035;DHT22;11181;51.002;4.356;2023-04-15T15:33:07;18.80;99.90